createdAt,value
2018-05-10T00:01:09.837Z,7.83
2018-05-10T00:03:37.229Z,8.27
2018-05-10T00:06:04.654Z,7.47
2018-05-10T00:08:32.061Z,8.27
2018-05-10T00:10:59.561Z,8.30
2018-05-10T00:13:26.961Z,8.10
2018-05-10T00:15:54.469Z,8.57
2018-05-10T00:18:21.961Z,7.87
2018-05-10T00:20:49.366Z,8.40
2018-05-10T00:23:16.828Z,8.80
2018-05-10T00:25:44.212Z,8.40
2018-05-10T00:28:11.617Z,8.10
2018-05-10T00:30:39.009Z,8.27
2018-05-10T00:33:06.401Z,9.83
2018-05-10T00:35:33.929Z,8.23
2018-05-10T00:38:01.320Z,8.07
2018-05-10T00:40:28.716Z,7.87
2018-05-10T00:42:56.092Z,7.67
2018-05-10T00:45:23.529Z,8.47
2018-05-10T00:47:50.989Z,8.37
2018-05-10T00:50:18.385Z,9.37
2018-05-10T00:52:45.769Z,7.93
2018-05-10T00:55:13.173Z,8.47
2018-05-10T00:57:40.566Z,9.07
2018-05-10T01:00:08.065Z,9.20
2018-05-10T01:02:35.479Z,8.47
2018-05-10T01:05:02.873Z,8.27
2018-05-10T01:07:30.338Z,9.30
2018-05-10T01:09:57.724Z,8.20
2018-05-10T01:12:25.114Z,9.17
2018-05-10T01:14:52.517Z,9.53
2018-05-10T01:17:19.915Z,8.97
2018-05-10T01:19:47.328Z,7.80
2018-05-10T01:22:14.722Z,8.07
2018-05-10T01:24:42.112Z,8.53
2018-05-10T01:27:09.578Z,9.03
2018-05-10T01:29:37.056Z,9.10
2018-05-10T01:32:04.493Z,8.70
2018-05-10T01:34:31.965Z,8.37
2018-05-10T01:36:59.352Z,8.23
2018-05-10T01:39:26.766Z,8.07
2018-05-10T01:41:54.174Z,8.73
2018-05-10T01:44:21.577Z,9.00
2018-05-10T01:46:48.974Z,9.83
2018-05-10T01:49:16.378Z,8.63
2018-05-10T01:51:43.769Z,9.47
2018-05-10T01:54:11.201Z,8.20
2018-05-10T01:56:38.592Z,9.57
2018-05-10T01:59:06.013Z,9.67
2018-05-10T02:01:33.419Z,9.77
2018-05-10T02:04:00.813Z,9.57
2018-05-10T02:06:28.197Z,8.97
2018-05-10T02:08:55.593Z,9.27
2018-05-10T02:11:22.986Z,9.87
2018-05-10T02:13:50.441Z,10.30
2018-05-10T02:16:17.897Z,9.70
2018-05-10T02:18:45.359Z,9.80
2018-05-10T02:21:12.745Z,10.10
2018-05-10T02:23:40.154Z,9.43
2018-05-10T02:26:07.628Z,9.70
2018-05-10T02:28:35.009Z,8.77
2018-05-10T02:31:02.438Z,9.90
2018-05-10T02:33:29.891Z,10.17
2018-05-10T02:35:57.291Z,10.33
2018-05-10T02:38:24.713Z,9.50
2018-05-10T02:40:52.220Z,11.73
2018-05-10T02:45:55.705Z,10.30
2018-05-10T02:48:23.133Z,10.93
2018-05-10T02:50:50.605Z,9.50
2018-05-10T02:53:17.938Z,10.03
2018-05-10T02:55:45.342Z,10.27
2018-05-10T02:58:12.743Z,9.80
2018-05-10T03:00:41.091Z,10.37
2018-05-10T03:03:08.485Z,10.33
2018-05-10T03:05:35.886Z,10.53
2018-05-10T03:08:03.281Z,10.47
2018-05-10T03:10:30.685Z,10.07
2018-05-10T03:12:58.078Z,10.07
2018-05-10T03:15:25.581Z,10.50
2018-05-10T03:17:52.993Z,10.83
2018-05-10T03:20:20.393Z,11.10
2018-05-10T03:22:47.832Z,10.97
2018-05-10T03:25:15.229Z,10.17
2018-05-10T03:27:42.645Z,10.90
2018-05-10T03:30:10.120Z,10.53
2018-05-10T03:32:37.504Z,10.33
2018-05-10T03:35:04.917Z,11.10
2018-05-10T03:37:32.318Z,10.50
2018-05-10T03:39:59.743Z,10.80
2018-05-10T03:42:27.126Z,10.50
2018-05-10T03:44:54.541Z,10.83
2018-05-10T03:47:21.945Z,11.60
2018-05-10T03:49:49.356Z,11.80
2018-05-10T03:52:16.748Z,11.30
2018-05-10T03:54:44.162Z,11.23
2018-05-10T03:57:11.586Z,11.50
2018-05-10T03:59:39.097Z,10.53
2018-05-10T04:02:06.481Z,10.23
2018-05-10T04:04:45.677Z,10.60
2018-05-10T04:07:24.918Z,10.20
2018-05-10T04:10:04.122Z,11.67
2018-05-10T04:12:31.521Z,11.50
2018-05-10T04:14:58.991Z,11.83
2018-05-10T04:17:26.389Z,11.00
2018-05-10T04:19:53.797Z,10.77
2018-05-10T04:22:21.191Z,11.33
2018-05-10T04:24:48.621Z,11.00
2018-05-10T04:27:16.029Z,11.20
2018-05-10T04:29:43.437Z,10.73
2018-05-10T04:32:10.889Z,11.53
2018-05-10T04:34:38.301Z,11.10
2018-05-10T04:37:05.693Z,11.43
2018-05-10T04:39:33.085Z,11.20
2018-05-10T04:42:00.514Z,10.90
2018-05-10T04:44:27.897Z,11.03
2018-05-10T04:46:55.301Z,11.03
2018-05-10T04:49:22.798Z,11.40
2018-05-10T04:51:50.184Z,10.37
2018-05-10T04:54:17.597Z,9.90
2018-05-10T04:56:45.002Z,10.70
2018-05-10T04:59:12.398Z,10.90
2018-05-10T05:01:39.855Z,9.63
2018-05-10T05:04:07.320Z,10.60
2018-05-10T05:06:34.730Z,11.47
2018-05-10T05:09:02.207Z,10.37
2018-05-10T05:11:29.521Z,10.20
2018-05-10T05:13:56.925Z,10.10
2018-05-10T05:16:24.377Z,9.53
2018-05-10T05:18:51.777Z,8.57
2018-05-10T05:21:19.170Z,10.53
2018-05-10T05:23:46.605Z,10.00
2018-05-10T05:26:14.005Z,9.40
2018-05-10T05:28:41.393Z,9.60
2018-05-10T05:31:08.803Z,10.70
2018-05-10T05:33:36.277Z,9.60
2018-05-10T05:36:03.765Z,9.90
2018-05-10T05:38:31.188Z,9.83
2018-05-10T05:40:58.585Z,9.50
2018-05-10T05:43:25.994Z,9.80
2018-05-10T05:45:53.449Z,9.47
2018-05-10T05:48:20.909Z,8.63
2018-05-10T05:50:48.373Z,9.77
2018-05-10T05:53:15.756Z,9.53
2018-05-10T05:55:43.157Z,8.70
2018-05-10T05:58:10.576Z,9.07
2018-05-10T06:00:37.961Z,9.90
2018-05-10T06:03:05.357Z,9.50
2018-05-10T06:05:32.818Z,10.03
2018-05-10T06:08:00.259Z,10.70
2018-05-10T06:10:27.678Z,10.40
2018-05-10T06:12:55.069Z,11.43
2018-05-10T06:15:22.550Z,10.27
2018-05-10T06:17:49.869Z,11.07
2018-05-10T06:20:17.272Z,10.00
2018-05-10T06:22:44.674Z,10.83
2018-05-10T06:25:12.166Z,10.03
2018-05-10T06:27:39.530Z,10.57
2018-05-10T06:30:06.954Z,10.03
2018-05-10T06:32:34.349Z,10.13
2018-05-10T06:35:01.757Z,9.47
2018-05-10T06:37:30.306Z,10.80
2018-05-10T06:39:57.692Z,10.27
2018-05-10T06:42:25.118Z,10.17
2018-05-10T06:44:52.524Z,10.20
2018-05-10T06:47:19.943Z,9.60
2018-05-10T06:49:47.336Z,9.60
2018-05-10T06:52:14.794Z,8.27
2018-05-10T06:54:42.279Z,11.47
2018-05-10T06:57:09.658Z,9.73
2018-05-10T06:59:37.066Z,9.60
2018-05-10T07:02:04.466Z,9.03
2018-05-10T07:04:31.856Z,9.37
2018-05-10T07:06:59.249Z,7.90
2018-05-10T07:09:26.801Z,8.60
2018-05-10T07:11:54.118Z,8.87
2018-05-10T07:14:21.609Z,8.77
2018-05-10T07:16:49.062Z,7.97
2018-05-10T07:19:16.511Z,7.43
2018-05-10T07:21:43.988Z,7.73
2018-05-10T07:24:11.381Z,7.87
2018-05-10T07:26:38.777Z,7.67
2018-05-10T07:29:06.206Z,7.30
2018-05-10T07:31:33.641Z,7.80
2018-05-10T07:34:00.986Z,6.77
2018-05-10T07:36:28.453Z,6.63
2018-05-10T07:38:55.845Z,7.23
2018-05-10T07:41:23.242Z,7.57
2018-05-10T07:43:50.677Z,6.83
2018-05-10T07:46:18.129Z,6.60
2018-05-10T07:48:45.525Z,6.60
2018-05-10T07:51:12.945Z,7.57
2018-05-10T07:53:40.423Z,5.80
2018-05-10T07:56:07.806Z,7.33
2018-05-10T07:58:35.207Z,6.57
2018-05-10T08:01:02.621Z,6.57
2018-05-10T08:03:30.021Z,6.20
2018-05-10T08:05:57.485Z,5.17
2018-05-10T08:08:24.885Z,5.50
2018-05-10T08:10:52.278Z,5.27
2018-05-10T08:13:19.778Z,5.40
2018-05-10T08:15:47.178Z,6.50
2018-05-10T08:18:14.569Z,6.40
2018-05-10T08:20:41.972Z,6.57
2018-05-10T08:23:09.388Z,6.37
2018-05-10T08:25:36.776Z,6.87
2018-05-10T08:28:04.185Z,6.30
2018-05-10T08:30:32.468Z,5.80
2018-05-10T08:32:59.861Z,6.00
2018-05-10T08:35:27.252Z,6.20
2018-05-10T08:37:54.670Z,5.87
2018-05-10T08:40:22.069Z,6.03
2018-05-10T08:42:49.465Z,7.13
2018-05-10T08:45:16.965Z,5.83
2018-05-10T08:47:44.348Z,7.13
2018-05-10T08:50:11.737Z,6.40
2018-05-10T08:52:39.156Z,7.20
2018-05-10T08:55:06.562Z,7.30
2018-05-10T08:57:34.044Z,7.83
2018-05-10T09:00:01.482Z,6.80
2018-05-10T09:02:28.842Z,6.83
2018-05-10T09:04:56.225Z,7.43
2018-05-10T09:07:23.632Z,7.00
2018-05-10T09:09:51.056Z,8.50
2018-05-10T09:12:18.409Z,6.60
2018-05-10T09:14:45.895Z,7.30
2018-05-10T09:17:13.353Z,7.97
2018-05-10T09:19:40.742Z,7.40
2018-05-10T09:22:08.154Z,7.10
2018-05-10T09:24:35.545Z,7.77
2018-05-10T09:27:03.113Z,7.97
2018-05-10T09:29:30.542Z,6.73
2018-05-10T09:31:57.947Z,7.00
2018-05-10T09:34:25.378Z,8.30
2018-05-10T09:36:52.758Z,9.03
2018-05-10T09:39:20.243Z,8.73
2018-05-10T09:41:47.570Z,10.77
2018-05-10T09:44:14.962Z,12.67
2018-05-10T09:46:42.462Z,11.97
2018-05-10T09:49:09.855Z,12.90
2018-05-10T09:51:37.340Z,11.77
2018-05-10T09:54:04.733Z,13.67
2018-05-10T09:56:32.178Z,13.70
2018-05-10T09:58:59.575Z,14.60
2018-05-10T10:01:27.068Z,13.90
2018-05-10T10:03:54.460Z,12.77
2018-05-10T10:06:21.947Z,15.00
2018-05-10T10:08:49.341Z,12.73
2018-05-10T10:11:16.727Z,14.30
2018-05-10T10:13:44.206Z,14.70
2018-05-10T10:16:11.662Z,15.80
2018-05-10T10:18:39.112Z,13.90
2018-05-10T10:21:06.509Z,13.30
2018-05-10T10:23:33.911Z,14.70
2018-05-10T10:26:01.383Z,14.50
2018-05-10T10:28:28.849Z,12.10
2018-05-10T10:30:56.241Z,14.87
2018-05-10T10:33:23.703Z,17.67
2018-05-10T10:35:51.057Z,16.03
2018-05-10T10:38:18.592Z,17.23
2018-05-10T10:40:45.921Z,21.30
2018-05-10T10:43:13.388Z,21.37
2018-05-10T10:45:40.781Z,19.90
2018-05-10T10:48:08.177Z,21.43
2018-05-10T10:50:35.578Z,18.30
2018-05-10T10:53:02.986Z,22.07
2018-05-10T10:55:30.389Z,25.90
2018-05-10T10:57:57.806Z,32.80
2018-05-10T11:00:25.222Z,34.30
2018-05-10T11:02:52.635Z,34.37
2018-05-10T11:05:20.045Z,41.43
2018-05-10T11:07:47.464Z,37.43
2018-05-10T11:10:14.842Z,42.70
2018-05-10T11:12:42.305Z,43.40
2018-05-10T11:15:09.870Z,43.40
2018-05-10T11:17:37.173Z,44.33
2018-05-10T11:20:04.591Z,41.57
2018-05-10T11:22:32.161Z,41.50
2018-05-10T11:24:59.501Z,42.70
2018-05-10T11:27:27.052Z,45.00
2018-05-10T11:29:54.410Z,45.70
2018-05-10T11:32:21.833Z,44.27
2018-05-10T11:34:49.239Z,43.47
2018-05-10T11:37:16.749Z,41.30
2018-05-10T11:39:44.214Z,44.30
2018-05-10T11:42:11.649Z,42.70
2018-05-10T11:44:39.105Z,41.33
2018-05-10T11:47:06.565Z,46.30
2018-05-10T11:49:34.035Z,46.63
2018-05-10T11:52:01.425Z,46.13
2018-05-10T11:54:28.836Z,43.50
2018-05-10T11:56:56.297Z,39.30
2018-05-10T11:59:23.794Z,45.23
2018-05-10T12:01:51.213Z,47.10
2018-05-10T12:04:18.616Z,48.03
2018-05-10T12:06:46.117Z,47.37
2018-05-10T12:09:13.521Z,49.53
2018-05-10T12:11:40.916Z,48.20
2018-05-10T12:14:08.333Z,49.60
2018-05-10T12:16:35.825Z,48.70
2018-05-10T12:19:03.238Z,49.50
2018-05-10T12:21:30.638Z,47.63
2018-05-10T12:23:58.050Z,51.80
2018-05-10T12:26:25.534Z,50.60
2018-05-10T12:28:52.938Z,50.60
2018-05-10T12:31:20.361Z,52.87
2018-05-10T12:33:47.760Z,50.47
2018-05-10T12:36:16.118Z,55.27
2018-05-10T12:38:43.529Z,59.20
2018-05-10T12:41:11.112Z,53.60
2018-05-10T12:43:38.517Z,55.40
2018-05-10T12:46:06.016Z,52.20
2018-05-10T12:48:33.463Z,50.30
2018-05-10T12:51:00.818Z,50.87
2018-05-10T12:53:28.218Z,49.33
2018-05-10T12:55:55.763Z,47.60
2018-05-10T12:58:23.170Z,46.00
2018-05-10T13:00:50.658Z,46.40
2018-05-10T13:03:18.053Z,42.30
2018-05-10T13:05:45.549Z,36.77
2018-05-10T13:08:12.973Z,35.53
2018-05-10T13:10:40.393Z,33.50
2018-05-10T13:13:07.799Z,33.20
2018-05-10T13:15:35.193Z,32.53
2018-05-10T13:18:02.593Z,29.20
2018-05-10T13:20:30.187Z,27.70
2018-05-10T13:22:57.817Z,25.20
2018-05-10T13:25:25.213Z,23.93
2018-05-10T13:27:52.664Z,24.70
2018-05-10T13:30:20.063Z,24.13
2018-05-10T13:32:47.465Z,23.80
2018-05-10T13:35:14.866Z,23.60
2018-05-10T13:37:42.256Z,20.50
2018-05-10T13:40:09.729Z,18.90
2018-05-10T13:42:37.154Z,17.30
2018-05-10T13:45:04.759Z,15.80
2018-05-10T13:47:32.231Z,14.40
2018-05-10T13:49:59.550Z,16.17
2018-05-10T13:52:27.073Z,15.57
2018-05-10T13:54:54.489Z,16.50
2018-05-10T13:57:22.024Z,19.30
2018-05-10T13:59:49.489Z,19.43
2018-05-10T14:02:16.932Z,20.90
2018-05-10T14:04:44.422Z,19.90
2018-05-10T14:07:11.876Z,19.63
2018-05-10T14:09:39.314Z,20.80
2018-05-10T14:12:06.804Z,13.90
2018-05-10T14:14:34.253Z,12.40
2018-05-10T14:17:01.638Z,10.70
2018-05-10T14:19:29.141Z,10.27
2018-05-10T14:21:56.665Z,9.20
2018-05-10T14:24:24.014Z,7.63
2018-05-10T14:26:51.413Z,9.17
2018-05-10T14:29:18.878Z,7.53
2018-05-10T14:31:46.329Z,8.90
2018-05-10T14:34:13.789Z,9.73
2018-05-10T14:36:41.187Z,10.80
2018-05-10T14:39:08.593Z,12.10
2018-05-10T14:41:36.014Z,11.63
2018-05-10T14:44:03.517Z,11.30
2018-05-10T14:46:30.917Z,10.30
2018-05-10T14:48:58.432Z,9.20
2018-05-10T14:51:25.826Z,8.63
2018-05-10T14:53:53.273Z,7.40
2018-05-10T14:56:20.760Z,6.83
2018-05-10T14:58:48.166Z,5.90
2018-05-10T15:01:15.556Z,5.57
2018-05-10T15:03:43.043Z,5.40
2018-05-10T15:06:10.433Z,5.40
2018-05-10T15:08:37.865Z,4.80
2018-05-10T15:11:05.264Z,5.50
2018-05-10T15:13:32.675Z,4.80
2018-05-10T15:16:00.076Z,5.00
2018-05-10T15:18:27.477Z,5.10
2018-05-10T15:20:54.861Z,4.47
2018-05-10T15:23:22.264Z,5.10
2018-05-10T15:25:49.661Z,5.20
2018-05-10T15:28:17.043Z,5.90
2018-05-10T15:30:44.445Z,5.40
2018-05-10T15:33:11.866Z,5.50
2018-05-10T15:35:39.308Z,4.47
2018-05-10T15:38:06.702Z,4.90
2018-05-10T15:40:34.100Z,5.10
2018-05-10T15:43:01.491Z,3.77
2018-05-10T15:45:28.895Z,4.47
2018-05-10T15:47:56.280Z,3.80
2018-05-10T15:50:23.755Z,3.40
2018-05-10T15:52:51.145Z,4.10
2018-05-10T15:55:18.563Z,4.20
2018-05-10T15:57:45.985Z,4.00
2018-05-10T16:00:13.483Z,4.50
2018-05-10T16:02:40.878Z,4.70
2018-05-10T16:05:08.277Z,3.53
2018-05-10T16:07:35.674Z,3.53
2018-05-10T16:10:03.065Z,3.27
2018-05-10T16:12:30.457Z,3.47
2018-05-10T16:14:57.977Z,2.93
2018-05-10T16:17:25.380Z,2.50
2018-05-10T16:19:52.790Z,2.80
2018-05-10T16:22:20.282Z,2.60
2018-05-10T16:24:47.710Z,2.37
2018-05-10T16:27:15.193Z,2.60
2018-05-10T16:29:42.609Z,2.47
2018-05-10T16:32:09.997Z,2.70
2018-05-10T16:34:37.462Z,2.37
2018-05-10T16:37:04.914Z,2.53
2018-05-10T16:39:32.359Z,2.67
2018-05-10T16:41:59.733Z,3.03
2018-05-10T16:44:27.142Z,2.00
2018-05-10T16:46:54.525Z,2.70
2018-05-10T16:49:22.001Z,2.37
2018-05-10T16:51:49.458Z,2.33
2018-05-10T16:54:16.868Z,2.40
2018-05-10T16:56:44.262Z,3.40
2018-05-10T16:59:11.654Z,3.07
2018-05-10T17:01:39.045Z,2.93
2018-05-10T17:04:06.472Z,3.30
2018-05-10T17:06:33.897Z,3.17
2018-05-10T17:09:01.318Z,3.17
2018-05-10T17:11:28.714Z,3.50
2018-05-10T17:13:56.160Z,2.80
2018-05-10T17:16:23.569Z,2.80
2018-05-10T17:18:50.953Z,2.97
2018-05-10T17:21:18.458Z,2.77
2018-05-10T17:23:45.951Z,2.93
2018-05-10T17:26:13.329Z,3.60
2018-05-10T17:28:41.633Z,2.30
2018-05-10T17:31:09.089Z,3.40
2018-05-10T17:33:36.478Z,2.83
2018-05-10T17:36:03.882Z,3.40
2018-05-10T17:38:31.274Z,2.80
2018-05-10T17:40:58.683Z,3.43
2018-05-10T17:43:26.074Z,2.70
2018-05-10T17:45:53.469Z,2.53
2018-05-10T17:48:20.861Z,2.83
2018-05-10T17:50:48.256Z,2.70
2018-05-10T17:53:15.651Z,3.00
2018-05-10T17:55:43.089Z,2.80
2018-05-10T17:58:10.509Z,3.50
2018-05-10T18:00:37.921Z,2.53
2018-05-10T18:03:05.353Z,2.70
2018-05-10T18:05:32.824Z,3.37
2018-05-10T18:08:00.219Z,3.10
2018-05-10T18:10:27.641Z,3.20
2018-05-10T18:12:55.066Z,3.23
2018-05-10T18:15:22.591Z,2.60
2018-05-10T18:17:49.988Z,2.77
2018-05-10T18:20:17.379Z,2.60
2018-05-10T18:22:44.848Z,2.57
2018-05-10T18:25:12.381Z,2.30
2018-05-10T18:27:39.837Z,2.17
2018-05-10T18:30:07.309Z,2.17
2018-05-10T18:32:34.805Z,2.47
2018-05-10T18:35:02.201Z,2.80
2018-05-10T18:37:29.621Z,3.23
2018-05-10T18:39:57.017Z,2.80
2018-05-10T18:42:24.434Z,2.80
2018-05-10T18:44:51.834Z,3.47
2018-05-10T18:47:19.226Z,2.47
2018-05-10T18:49:46.634Z,2.90
2018-05-10T18:52:14.045Z,2.70
2018-05-10T18:54:41.569Z,2.80
2018-05-10T18:57:08.966Z,4.10
2018-05-10T18:59:36.354Z,3.10
2018-05-10T19:02:03.762Z,2.90
2018-05-10T19:04:31.158Z,3.70
2018-05-10T19:06:58.582Z,3.60
2018-05-10T19:09:25.969Z,3.20
2018-05-10T19:11:53.396Z,3.40
2018-05-10T19:14:20.801Z,3.70
2018-05-10T19:16:48.239Z,3.47
2018-05-10T19:19:15.621Z,3.50
2018-05-10T19:21:43.020Z,3.20
2018-05-10T19:24:10.481Z,4.27
2018-05-10T19:26:37.953Z,4.00
2018-05-10T19:29:05.365Z,3.50
2018-05-10T19:31:32.767Z,3.70
2018-05-10T19:34:00.157Z,4.60
2018-05-10T19:36:27.556Z,4.03
2018-05-10T19:38:54.949Z,3.90
2018-05-10T19:41:22.344Z,3.67
2018-05-10T19:43:49.727Z,3.93
2018-05-10T19:46:17.185Z,3.70
2018-05-10T19:48:44.581Z,4.17
2018-05-10T19:51:12.062Z,4.03
2018-05-10T19:53:39.455Z,4.10
2018-05-10T19:56:07.782Z,3.97
2018-05-10T19:58:35.177Z,3.37
2018-05-10T20:01:02.594Z,3.80
2018-05-10T20:03:30.097Z,4.67
2018-05-10T20:05:57.493Z,3.93
2018-05-10T20:08:24.900Z,3.87
2018-05-10T20:10:52.294Z,3.67
2018-05-10T20:13:19.722Z,3.40
2018-05-10T20:15:47.190Z,3.23
2018-05-10T20:18:14.573Z,3.40
2018-05-10T20:20:41.973Z,3.30
2018-05-10T20:23:09.370Z,3.60
2018-05-10T20:25:36.766Z,3.37
2018-05-10T20:28:04.260Z,3.13
2018-05-10T20:30:31.661Z,3.42
2018-05-10T20:32:59.065Z,4.30
2018-05-10T20:35:26.455Z,4.23
2018-05-10T20:37:53.873Z,3.73
2018-05-10T20:40:21.302Z,3.40
2018-05-10T20:42:48.690Z,3.80
2018-05-10T20:45:16.085Z,2.93
2018-05-10T20:47:43.552Z,3.70
2018-05-10T20:50:10.975Z,2.93
2018-05-10T20:52:38.378Z,2.90
2018-05-10T20:55:05.787Z,2.90
2018-05-10T20:57:33.168Z,3.30
2018-05-10T21:00:00.587Z,4.17
2018-05-10T21:02:27.977Z,3.83
2018-05-10T21:04:55.366Z,3.53
2018-05-10T21:07:22.849Z,3.70
2018-05-10T21:09:50.366Z,4.07
2018-05-10T21:12:29.494Z,4.07
2018-05-10T21:14:56.896Z,4.33
2018-05-10T21:17:24.294Z,3.80
2018-05-10T21:19:51.705Z,4.70
2018-05-10T21:22:19.100Z,3.70
2018-05-10T21:24:46.509Z,3.67
2018-05-10T21:27:14.001Z,3.50
2018-05-10T21:29:41.391Z,3.60
2018-05-10T21:32:08.799Z,3.53
2018-05-10T21:34:36.182Z,4.13
2018-05-10T21:37:03.583Z,3.80
2018-05-10T21:39:30.969Z,3.90
2018-05-10T21:41:58.421Z,3.60
2018-05-10T21:44:25.813Z,3.73
2018-05-10T21:46:53.204Z,4.20
2018-05-10T21:49:32.262Z,4.00
2018-05-10T21:51:59.645Z,3.90
2018-05-10T21:54:27.062Z,3.90
2018-05-10T21:56:54.464Z,4.53
2018-05-10T21:59:21.868Z,4.30
2018-05-10T22:01:49.330Z,4.43
2018-05-10T22:04:16.720Z,4.60
2018-05-10T22:06:44.147Z,3.87
2018-05-10T22:09:11.638Z,3.70
2018-05-10T22:11:39.001Z,4.33
2018-05-10T22:14:06.409Z,3.90
2018-05-10T22:16:33.867Z,3.90
2018-05-10T22:19:01.285Z,3.33
2018-05-10T22:21:28.707Z,3.43
2018-05-10T22:23:56.156Z,3.47
2018-05-10T22:26:23.553Z,3.13
2018-05-10T22:28:50.945Z,2.90
2018-05-10T22:31:18.341Z,3.47
2018-05-10T22:33:45.747Z,2.90
2018-05-10T22:36:13.153Z,3.33
2018-05-10T22:38:40.626Z,3.97
2018-05-10T22:41:08.019Z,3.63
2018-05-10T22:43:35.446Z,2.90
2018-05-10T22:46:02.871Z,3.37
2018-05-10T22:48:30.241Z,2.80
2018-05-10T22:50:57.693Z,2.70
2018-05-10T22:53:25.165Z,3.37
2018-05-10T22:55:52.651Z,2.90
2018-05-10T22:58:20.017Z,2.80
2018-05-10T23:00:47.389Z,2.80
2018-05-10T23:03:14.884Z,3.40
2018-05-10T23:05:42.283Z,2.80
2018-05-10T23:08:09.688Z,3.70
2018-05-10T23:10:37.073Z,3.37
2018-05-10T23:13:04.535Z,2.77
2018-05-10T23:15:31.938Z,3.67
2018-05-10T23:17:59.356Z,2.70
2018-05-10T23:20:26.833Z,4.10
2018-05-10T23:22:54.256Z,3.20
2018-05-10T23:25:21.644Z,3.80
2018-05-10T23:27:49.065Z,4.10
2018-05-10T23:30:16.552Z,3.33
2018-05-10T23:32:43.952Z,3.80
2018-05-10T23:35:11.392Z,3.70
2018-05-10T23:37:38.839Z,3.67
2018-05-10T23:40:06.324Z,3.40
2018-05-10T23:42:33.729Z,3.27
2018-05-10T23:45:01.134Z,4.20
2018-05-10T23:47:28.622Z,3.17
2018-05-10T23:49:56.078Z,4.00
2018-05-10T23:52:23.473Z,3.40
2018-05-10T23:54:50.890Z,4.60
2018-05-10T23:57:18.383Z,4.87
2018-05-10T23:59:45.758Z,4.03
